createdAt,value
2018-06-08T00:02:03.769Z,99.90
2018-06-08T00:04:30.907Z,99.90
2018-06-08T00:06:58.179Z,99.90
2018-06-08T00:09:25.329Z,99.90
2018-06-08T00:11:52.478Z,99.90
2018-06-08T00:14:19.644Z,99.90
2018-06-08T00:19:13.982Z,99.90
2018-06-08T00:21:41.110Z,99.90
2018-06-08T00:24:08.144Z,99.90
2018-06-08T00:26:35.240Z,99.90
2018-06-08T00:29:02.498Z,99.90
2018-06-08T00:31:29.658Z,99.90
2018-06-08T00:33:56.727Z,99.90
2018-06-08T00:36:23.770Z,99.90
2018-06-08T00:38:51.100Z,99.90
2018-06-08T00:41:18.100Z,99.90
2018-06-08T00:43:45.228Z,99.90
2018-06-08T00:46:12.312Z,99.90
2018-06-08T00:48:39.426Z,99.90
2018-06-08T00:51:06.547Z,99.90
2018-06-08T00:53:33.708Z,99.90
2018-06-08T00:56:00.770Z,99.90
2018-06-08T00:58:27.819Z,99.90
2018-06-08T01:00:54.956Z,99.90
2018-06-08T01:03:22.123Z,99.90
2018-06-08T01:05:49.132Z,99.90
2018-06-08T01:08:16.176Z,99.90
2018-06-08T01:10:43.220Z,99.90
2018-06-08T01:13:11.968Z,99.90
2018-06-08T01:15:39.296Z,99.90
2018-06-08T01:18:06.473Z,99.90
2018-06-08T01:20:33.588Z,99.90
2018-06-08T01:23:00.650Z,99.90
2018-06-08T01:25:27.741Z,99.90
2018-06-08T01:27:54.911Z,99.90
2018-06-08T01:30:22.181Z,99.90
2018-06-08T01:32:49.196Z,99.90
2018-06-08T01:35:16.632Z,99.90
2018-06-08T01:37:43.662Z,99.90
2018-06-08T01:40:10.692Z,99.90
2018-06-08T01:42:37.812Z,99.90
2018-06-08T01:45:04.860Z,99.90
2018-06-08T01:47:32.015Z,99.90
2018-06-08T01:49:59.060Z,99.90
2018-06-08T01:52:26.136Z,99.90
2018-06-08T01:54:54.246Z,99.90
2018-06-08T01:57:21.327Z,99.90
2018-06-08T01:59:48.376Z,99.90
2018-06-08T02:02:15.477Z,99.90
2018-06-08T02:04:42.512Z,99.90
2018-06-08T02:07:09.814Z,99.90
2018-06-08T02:09:36.838Z,99.90
2018-06-08T02:12:03.933Z,99.90
2018-06-08T02:14:31.099Z,99.90
2018-06-08T02:19:25.286Z,99.90
2018-06-08T02:21:52.453Z,99.90
2018-06-08T02:24:19.522Z,99.90
2018-06-08T02:26:46.597Z,99.90
2018-06-08T02:29:13.648Z,99.90
2018-06-08T02:31:40.764Z,99.90
2018-06-08T02:34:07.844Z,99.90
2018-06-08T02:36:34.895Z,99.90
2018-06-08T02:39:02.063Z,99.90
2018-06-08T02:41:29.136Z,99.90
2018-06-08T02:43:56.308Z,99.90
2018-06-08T02:46:23.373Z,99.90
2018-06-08T02:51:17.585Z,99.90
2018-06-08T02:53:44.605Z,99.90
2018-06-08T02:56:11.678Z,99.90
2018-06-08T02:58:38.732Z,99.90
2018-06-08T03:03:32.872Z,99.90
2018-06-08T03:05:59.894Z,99.90
2018-06-08T03:08:27.256Z,99.90
2018-06-08T03:10:54.431Z,99.90
2018-06-08T03:13:21.479Z,99.90
2018-06-08T03:15:48.541Z,99.90
2018-06-08T03:18:16.320Z,99.90
2018-06-08T03:20:43.393Z,99.90
2018-06-08T03:25:37.648Z,99.90
2018-06-08T03:28:04.870Z,99.90
2018-06-08T03:30:32.175Z,99.90
2018-06-08T03:32:59.168Z,99.90
2018-06-08T03:35:26.320Z,99.90
2018-06-08T03:37:53.388Z,99.90
2018-06-08T03:40:21.166Z,99.90
2018-06-08T03:42:48.280Z,99.90
2018-06-08T03:45:15.536Z,99.90
2018-06-08T03:47:42.636Z,99.90
2018-06-08T03:50:10.300Z,99.90
2018-06-08T03:52:37.413Z,99.90
2018-06-08T03:55:04.536Z,99.90
2018-06-08T03:57:31.721Z,99.90
2018-06-08T03:59:58.793Z,99.90
2018-06-08T04:02:25.912Z,99.90
2018-06-08T04:04:53.018Z,99.90
2018-06-08T04:07:20.198Z,99.90
2018-06-08T04:09:47.268Z,99.90
2018-06-08T04:12:14.304Z,99.90
2018-06-08T04:17:08.529Z,99.90
2018-06-08T04:19:35.722Z,99.90
2018-06-08T04:22:03.642Z,99.90
2018-06-08T04:24:31.681Z,99.90
2018-06-08T04:26:58.839Z,99.90
2018-06-08T04:29:27.956Z,99.90
2018-06-08T04:31:55.166Z,99.90
2018-06-08T04:34:23.278Z,99.90
2018-06-08T04:36:50.464Z,99.90
2018-06-08T04:39:17.529Z,99.90
2018-06-08T04:41:45.269Z,99.90
2018-06-08T04:44:12.406Z,99.90
2018-06-08T04:46:39.717Z,99.90
2018-06-08T04:49:06.764Z,99.90
2018-06-08T04:51:33.946Z,99.90
2018-06-08T04:54:01.497Z,99.90
2018-06-08T04:56:28.777Z,99.90
2018-06-08T04:58:55.911Z,99.90
2018-06-08T05:01:24.717Z,99.90
2018-06-08T05:06:19.026Z,99.90
2018-06-08T05:08:46.103Z,99.90
2018-06-08T05:11:13.767Z,99.90
2018-06-08T05:13:40.946Z,99.90
2018-06-08T05:16:08.076Z,99.90
2018-06-08T05:18:35.182Z,99.90
2018-06-08T05:21:02.305Z,99.90
2018-06-08T05:23:29.373Z,99.90
2018-06-08T05:25:56.624Z,99.90
2018-06-08T05:28:23.770Z,99.90
2018-06-08T05:30:50.879Z,99.90
2018-06-08T05:33:17.948Z,99.90
2018-06-08T05:35:45.085Z,99.90
2018-06-08T05:38:12.237Z,99.90
2018-06-08T05:40:39.819Z,99.90
2018-06-08T05:43:07.203Z,99.90
2018-06-08T05:45:34.247Z,99.90
2018-06-08T05:48:01.781Z,99.90
2018-06-08T05:50:29.110Z,99.90
2018-06-08T05:52:56.535Z,99.90
2018-06-08T05:55:23.655Z,99.90
2018-06-08T05:57:51.156Z,99.90
2018-06-08T06:00:18.828Z,99.90
2018-06-08T06:02:46.243Z,99.90
2018-06-08T06:05:13.370Z,99.90
2018-06-08T06:07:40.512Z,99.90
2018-06-08T06:10:07.942Z,99.90
2018-06-08T06:12:35.130Z,99.90
2018-06-08T06:15:03.069Z,99.90
2018-06-08T06:17:30.631Z,99.90
2018-06-08T06:19:58.229Z,99.90
2018-06-08T06:22:25.370Z,99.90
2018-06-08T06:24:52.892Z,99.90
2018-06-08T06:27:20.071Z,99.90
2018-06-08T06:29:47.196Z,99.90
2018-06-08T06:32:16.314Z,99.90
2018-06-08T06:34:43.451Z,99.90
2018-06-08T06:37:10.548Z,99.90
2018-06-08T06:39:38.386Z,99.90
2018-06-08T06:42:06.448Z,99.90
2018-06-08T06:44:35.467Z,99.90
2018-06-08T06:47:02.879Z,99.90
2018-06-08T06:49:30.183Z,99.90
2018-06-08T06:51:58.056Z,99.90
2018-06-08T06:54:25.189Z,99.90
2018-06-08T06:56:52.291Z,99.90
2018-06-08T06:59:20.183Z,99.90
2018-06-08T07:04:15.811Z,99.90
2018-06-08T07:06:42.890Z,99.90
2018-06-08T07:09:10.140Z,99.90
2018-06-08T07:11:37.479Z,99.90
2018-06-08T07:14:04.661Z,99.90
2018-06-08T07:16:31.978Z,99.90
2018-06-08T07:18:59.056Z,99.90
2018-06-08T07:43:04.025Z,99.90
2018-06-08T07:45:31.124Z,99.90
2018-06-08T07:47:58.436Z,99.90
2018-06-08T07:50:26.370Z,99.90
2018-06-08T07:52:53.420Z,99.90
2018-06-08T07:55:20.571Z,99.90
2018-06-08T07:57:47.657Z,99.90
2018-06-08T08:00:14.717Z,99.90
2018-06-08T08:02:41.824Z,99.90
2018-06-08T08:05:09.582Z,99.90
2018-06-08T08:07:36.735Z,99.90
2018-06-08T08:10:04.340Z,99.90
2018-06-08T08:29:09.809Z,99.90
2018-06-08T08:31:36.825Z,99.90
2018-06-08T08:34:04.156Z,99.90
2018-06-08T08:36:31.253Z,99.90
2018-06-08T08:38:58.668Z,99.90
2018-06-08T08:41:26.456Z,99.90
2018-06-08T08:43:53.596Z,99.90
2018-06-08T08:46:21.279Z,99.90
2018-06-08T08:48:48.377Z,99.90
2018-06-08T08:51:15.459Z,99.90
2018-06-08T08:53:42.505Z,99.90
2018-06-08T08:56:09.554Z,99.90
2018-06-08T08:58:36.886Z,99.90
2018-06-08T09:01:03.969Z,99.90
2018-06-08T09:03:31.852Z,99.90
2018-06-08T09:05:58.899Z,99.90
2018-06-08T09:08:26.004Z,99.90
2018-06-08T09:10:53.098Z,99.90
2018-06-08T09:13:20.181Z,99.90
2018-06-08T09:15:47.964Z,99.90
2018-06-08T09:20:42.249Z,99.90
2018-06-08T09:23:09.413Z,99.90
2018-06-08T09:25:36.996Z,99.90
2018-06-08T09:28:04.112Z,99.90
2018-06-08T09:30:31.438Z,99.90
2018-06-08T09:32:58.516Z,99.90
2018-06-08T09:35:25.978Z,99.90
2018-06-08T09:37:53.586Z,99.90
2018-06-08T09:40:20.691Z,99.90
2018-06-08T09:42:49.138Z,99.90
2018-06-08T09:45:16.271Z,99.90
2018-06-08T09:47:43.415Z,99.90
2018-06-08T09:50:10.533Z,99.90
2018-06-08T09:55:05.002Z,99.90
2018-06-08T09:57:32.118Z,99.90
2018-06-08T09:59:59.405Z,99.90
2018-06-08T10:02:26.599Z,99.90
2018-06-08T10:04:53.721Z,99.90
2018-06-08T10:07:21.018Z,99.90
2018-06-08T10:12:15.728Z,99.90
2018-06-08T10:14:42.778Z,99.90
2018-06-08T10:17:10.652Z,99.90
2018-06-08T10:19:37.756Z,99.90
2018-06-08T10:22:05.838Z,99.90
2018-06-08T10:24:33.540Z,99.90
2018-06-08T10:27:01.282Z,99.90
2018-06-08T10:29:29.424Z,99.90
2018-06-08T10:31:56.551Z,99.90
2018-06-08T10:34:23.701Z,99.90
2018-06-08T10:36:50.753Z,99.90
2018-06-08T10:39:17.837Z,99.90
2018-06-08T10:41:44.908Z,99.90
2018-06-08T10:44:12.293Z,99.90
2018-06-08T10:46:39.454Z,99.90
2018-06-08T10:49:06.527Z,99.90
2018-06-08T10:51:33.755Z,99.90
2018-06-08T10:54:00.917Z,99.90
2018-06-08T10:56:29.335Z,99.90
2018-06-08T10:58:56.598Z,99.90
2018-06-08T11:01:24.717Z,99.90
2018-06-08T11:03:52.062Z,99.90
2018-06-08T11:06:19.841Z,99.90
2018-06-08T11:08:47.214Z,99.90
2018-06-08T11:11:15.415Z,99.90
2018-06-08T11:13:42.561Z,99.90
2018-06-08T11:16:10.318Z,99.90
2018-06-08T11:18:37.354Z,99.90
2018-06-08T11:21:04.831Z,99.90
2018-06-08T11:23:31.877Z,99.90
2018-06-08T11:25:58.989Z,99.90
2018-06-08T11:28:26.125Z,99.90
2018-06-08T11:30:53.217Z,99.90
2018-06-08T11:33:21.110Z,99.90
2018-06-08T11:35:48.280Z,99.90
2018-06-08T11:38:15.436Z,99.90
2018-06-08T11:40:42.505Z,99.90
2018-06-08T11:43:09.646Z,99.90
2018-06-08T11:45:36.988Z,99.90
2018-06-08T11:48:04.379Z,99.90
2018-06-08T11:50:31.536Z,99.90
2018-06-08T11:52:59.305Z,99.90
2018-06-08T11:55:26.465Z,99.90
2018-06-08T11:57:53.821Z,99.90
2018-06-08T12:00:21.362Z,99.40
2018-06-08T12:02:49.310Z,99.20
2018-06-08T12:05:16.660Z,99.00
2018-06-08T12:07:43.722Z,98.70
2018-06-08T12:10:10.787Z,98.90
2018-06-08T12:12:38.116Z,98.40
2018-06-08T12:15:05.159Z,98.60
2018-06-08T12:17:33.193Z,97.60
2018-06-08T12:20:00.288Z,98.10
2018-06-08T12:22:27.418Z,97.10
2018-06-08T12:24:54.556Z,96.60
2018-06-08T12:27:22.657Z,96.60
2018-06-08T12:29:50.027Z,97.20
2018-06-08T12:32:17.832Z,97.40
2018-06-08T12:34:45.138Z,96.80
2018-06-08T12:37:12.315Z,97.10
2018-06-08T12:39:40.540Z,96.90
2018-06-08T12:42:07.720Z,95.70
2018-06-08T12:44:34.772Z,95.40
2018-06-08T12:47:02.797Z,95.50
2018-06-08T12:49:29.881Z,95.20
2018-06-08T12:51:57.161Z,95.00
2018-06-08T12:54:24.267Z,94.40
2018-06-08T12:56:51.392Z,94.40
2018-06-08T12:59:19.528Z,94.60
2018-06-08T13:01:47.260Z,94.70
2018-06-08T13:04:14.386Z,95.00
2018-06-08T13:09:08.781Z,94.40
2018-06-08T13:11:36.382Z,94.40
2018-06-08T13:14:04.280Z,94.00
2018-06-08T13:16:31.665Z,94.40
2018-06-08T13:18:59.303Z,94.80
2018-06-08T13:21:26.612Z,94.80
2018-06-08T13:26:20.956Z,95.20
2018-06-08T13:28:48.130Z,95.40
2018-06-08T13:31:21.930Z,95.20
2018-06-08T13:33:48.982Z,95.70
2018-06-08T13:36:16.684Z,95.20
2018-06-08T13:41:12.301Z,94.20
2018-06-08T13:43:42.275Z,93.50
2018-06-08T13:46:21.802Z,92.80
2018-06-08T13:48:49.760Z,92.60
2018-06-08T13:51:16.955Z,92.60
2018-06-08T13:53:47.020Z,92.60
2018-06-08T13:56:14.232Z,91.90
2018-06-08T13:58:41.472Z,92.00
2018-06-08T14:01:08.802Z,92.60
2018-06-08T14:03:35.925Z,92.40
2018-06-08T14:06:03.032Z,92.10
2018-06-08T14:08:32.392Z,93.20
2018-06-08T14:13:27.483Z,94.60
2018-06-08T14:15:55.568Z,94.40
2018-06-08T14:18:22.857Z,94.80
2018-06-08T14:20:50.464Z,95.00
2018-06-08T14:23:17.785Z,95.10
2018-06-08T14:25:46.063Z,94.20
2018-06-08T14:44:59.258Z,92.00
2018-06-08T14:47:26.456Z,90.00
2018-06-08T14:49:54.938Z,89.90
2018-06-08T14:52:24.472Z,89.80
2018-06-08T14:54:51.622Z,87.10
2018-06-08T14:57:18.784Z,87.00
2018-06-08T14:59:46.443Z,86.40
2018-06-08T15:02:13.601Z,90.70
2018-06-08T15:04:40.847Z,93.30
2018-06-08T15:07:08.150Z,96.90
2018-06-08T15:09:36.256Z,99.10
2018-06-08T15:12:03.730Z,99.90
2018-06-08T15:14:31.762Z,99.90
2018-06-08T15:16:59.169Z,99.90
2018-06-08T15:19:28.652Z,99.90
2018-06-08T15:21:55.833Z,99.90
2018-06-08T15:24:23.047Z,96.20
2018-06-08T15:26:50.576Z,98.10
2018-06-08T15:29:17.725Z,96.40
2018-06-08T15:31:46.619Z,93.80
2018-06-08T15:34:15.262Z,92.10
2018-06-08T15:36:42.611Z,89.10
2018-06-08T15:39:10.380Z,85.80
2018-06-08T15:41:39.200Z,85.30
2018-06-08T15:44:10.697Z,82.60
2018-06-08T15:46:38.316Z,84.00
2018-06-08T15:49:06.978Z,78.20
2018-06-08T15:51:40.354Z,80.60
2018-06-08T15:54:07.606Z,81.10
2018-06-08T15:56:35.269Z,79.10
2018-06-08T15:59:03.538Z,77.60
2018-06-08T16:01:31.215Z,78.80
2018-06-08T16:03:58.981Z,73.60
2018-06-08T16:06:26.248Z,72.10
2018-06-08T16:08:53.501Z,74.70
2018-06-08T16:11:21.213Z,75.10
2018-06-08T16:13:48.614Z,76.50
2018-06-08T16:16:15.986Z,79.30
2018-06-08T16:18:43.480Z,78.40
2018-06-08T16:21:18.426Z,79.80
2018-06-08T16:23:45.667Z,79.30
2018-06-08T16:26:14.517Z,79.50
2018-06-08T16:28:43.434Z,79.60
2018-06-08T16:31:12.215Z,81.20
2018-06-08T16:33:40.802Z,82.60
2018-06-08T16:36:08.454Z,82.30
2018-06-08T16:38:35.888Z,81.90
2018-06-08T16:41:03.551Z,81.70
2018-06-08T16:43:31.919Z,82.10
2018-06-08T16:48:29.439Z,83.10
2018-06-08T16:50:58.642Z,79.90
2018-06-08T16:53:25.967Z,76.20
2018-06-08T16:55:53.740Z,77.20
2018-06-08T16:58:21.419Z,73.40
2018-06-08T17:00:50.148Z,72.10
2018-06-08T17:03:17.464Z,71.50
2018-06-08T17:05:45.541Z,73.50
2018-06-08T17:08:12.740Z,74.80
2018-06-08T17:13:10.596Z,76.20
2018-06-08T17:15:38.508Z,77.20
2018-06-08T17:18:06.115Z,77.30
2018-06-08T17:20:34.041Z,77.50
2018-06-08T17:23:01.474Z,77.00
2018-06-08T17:25:30.826Z,77.50
2018-06-08T17:27:58.881Z,77.30
2018-06-08T17:30:26.044Z,77.80
2018-06-08T17:32:53.330Z,78.20
2018-06-08T17:35:20.630Z,79.30
2018-06-08T17:37:48.577Z,80.30
2018-06-08T17:40:16.644Z,80.40
2018-06-08T17:42:44.664Z,81.80
2018-06-08T17:45:11.972Z,82.60
2018-06-08T17:47:40.005Z,82.80
2018-06-08T17:50:07.953Z,83.10
2018-06-08T17:52:35.159Z,83.60
2018-06-08T17:55:02.451Z,84.90
2018-06-08T17:59:57.538Z,86.10
2018-06-08T18:02:25.360Z,85.90
2018-06-08T18:04:52.710Z,86.70
2018-06-08T18:07:19.928Z,88.90
2018-06-08T18:09:47.259Z,90.40
2018-06-08T18:12:14.638Z,91.10
2018-06-08T18:14:41.765Z,91.90
2018-06-08T18:17:09.199Z,92.70
2018-06-08T18:19:36.437Z,93.10
2018-06-08T18:22:04.026Z,93.40
2018-06-08T18:24:31.374Z,94.00
2018-06-08T18:26:59.713Z,94.10
2018-06-08T18:29:27.049Z,94.00
2018-06-08T18:31:54.396Z,93.50
2018-06-08T18:34:22.558Z,93.60
2018-06-08T18:36:50.760Z,94.20
2018-06-08T18:39:18.828Z,95.30
2018-06-08T18:41:46.054Z,95.40
2018-06-08T18:44:13.240Z,95.60
2018-06-08T18:46:40.531Z,95.70
2018-06-08T18:49:07.796Z,96.00
2018-06-08T18:51:36.094Z,95.90
2018-06-08T18:58:58.601Z,96.50
2018-06-08T19:01:26.471Z,96.50
2018-06-08T19:03:54.582Z,96.60
2018-06-08T19:06:21.784Z,96.60
2018-06-08T19:11:17.920Z,97.30
2018-06-08T19:13:45.858Z,97.30
2018-06-08T19:16:14.445Z,97.50
2018-06-08T19:18:41.803Z,97.80
2018-06-08T19:21:09.711Z,98.30
2018-06-08T19:23:37.039Z,98.70
2018-06-08T19:26:04.454Z,99.10
2018-06-08T19:28:31.968Z,99.30
2018-06-08T19:30:59.269Z,99.60
2018-06-08T19:33:27.588Z,99.90
2018-06-08T19:35:56.820Z,99.90
2018-06-08T19:40:51.288Z,99.90
2018-06-08T19:43:18.531Z,99.90
2018-06-08T19:45:46.383Z,99.90
2018-06-08T19:48:14.396Z,99.90
2018-06-08T19:50:42.175Z,99.90
2018-06-08T19:53:09.333Z,99.90
2018-06-08T19:55:37.049Z,99.90
2018-06-08T19:58:04.375Z,99.90
2018-06-08T20:00:31.595Z,99.90
2018-06-08T20:02:58.845Z,99.90
2018-06-08T20:05:26.489Z,99.90
2018-06-08T20:07:53.672Z,99.90
2018-06-08T20:12:49.264Z,99.90
2018-06-08T20:17:45.365Z,99.90
2018-06-08T20:20:12.972Z,99.90
2018-06-08T20:22:40.094Z,99.90
2018-06-08T20:25:08.286Z,99.90
2018-06-08T20:27:40.098Z,99.90
2018-06-08T20:30:07.853Z,99.90
2018-06-08T20:32:35.601Z,99.90
2018-06-08T20:35:02.758Z,99.90
2018-06-08T20:37:29.916Z,99.90
2018-06-08T20:39:57.010Z,99.90
2018-06-08T20:42:24.660Z,99.90
2018-06-08T20:44:51.797Z,99.90
2018-06-08T20:47:19.278Z,99.90
2018-06-08T20:49:46.935Z,99.90
2018-06-08T21:08:58.904Z,99.90
2018-06-08T21:11:26.500Z,99.90
2018-06-08T21:13:54.600Z,99.90
2018-06-08T21:18:50.433Z,99.90
2018-06-08T21:21:18.613Z,99.90
2018-06-08T21:26:13.651Z,99.90
2018-06-08T21:28:40.729Z,99.90
2018-06-08T21:31:07.930Z,99.90
2018-06-08T21:33:35.492Z,99.90
2018-06-08T21:38:29.757Z,99.90
2018-06-08T21:40:57.431Z,99.90
2018-06-08T21:43:25.246Z,99.90
2018-06-08T21:48:20.919Z,99.90
2018-06-08T21:50:48.051Z,99.90
2018-06-08T21:53:15.819Z,99.90
2018-06-08T21:55:43.578Z,99.90
2018-06-08T21:58:12.468Z,99.90
2018-06-08T22:00:39.556Z,99.90
2018-06-08T22:03:06.722Z,99.90
2018-06-08T22:05:34.786Z,99.90
2018-06-08T22:08:03.045Z,99.90
2018-06-08T22:10:30.514Z,99.90
2018-06-08T22:12:57.673Z,99.90
2018-06-08T22:15:25.044Z,99.90
2018-06-08T22:17:53.081Z,99.90
2018-06-08T22:20:20.676Z,99.90
2018-06-08T22:22:47.991Z,99.90
2018-06-08T22:25:15.985Z,99.90
2018-06-08T22:27:43.603Z,99.90
2018-06-08T22:30:10.879Z,99.90
2018-06-08T22:32:39.586Z,99.90
2018-06-08T22:35:07.930Z,99.90
2018-06-08T22:37:35.511Z,99.90
2018-06-08T22:40:02.907Z,99.90
2018-06-08T22:42:30.239Z,99.90
2018-06-08T22:44:57.330Z,99.90
2018-06-08T22:47:24.933Z,99.90
2018-06-08T22:49:52.024Z,99.90
2018-06-08T22:52:19.173Z,99.90
2018-06-08T22:54:46.238Z,99.90
2018-06-08T22:57:13.380Z,99.90
2018-06-08T22:59:40.417Z,99.90
2018-06-08T23:02:07.623Z,99.90
2018-06-08T23:04:34.740Z,99.90
2018-06-08T23:07:01.852Z,99.90
2018-06-08T23:09:28.943Z,99.90
2018-06-08T23:11:56.065Z,99.90
2018-06-08T23:14:23.180Z,99.90
2018-06-08T23:16:50.472Z,99.90
2018-06-08T23:19:18.249Z,99.90
2018-06-08T23:21:45.404Z,99.90
2018-06-08T23:24:12.547Z,99.90
2018-06-08T23:26:39.670Z,99.90
2018-06-08T23:29:06.741Z,99.90
2018-06-08T23:31:33.760Z,99.90
2018-06-08T23:34:00.808Z,99.90
2018-06-08T23:36:27.897Z,99.90
2018-06-08T23:38:55.036Z,99.90
2018-06-08T23:41:22.154Z,99.90
2018-06-08T23:43:49.221Z,99.90
2018-06-08T23:46:16.280Z,99.90
2018-06-08T23:48:43.339Z,99.90
2018-06-08T23:51:10.505Z,99.90
2018-06-08T23:53:37.574Z,99.90
2018-06-08T23:56:04.652Z,99.90
2018-06-08T23:58:31.803Z,99.90
